Terminal Aerodrome Forecast
Issued by NWS

Home | Current Version | Previous Version | Text Only | Print | Product List | Glossary Off
Versions: 1 2 3 4 5 6 7 8 9 10 11 12 13

057
FTUS43 KOAX 231725
TAFCDR
TAF
KCDR 231725Z 2318/2418 01014G22KT P6SM VCSH BKN100
     FM240100 03009KT P6SM SCT200
     FM240300 VRB04KT P6SM FEW250
     FM241400 18010KT P6SM SKC=

USA.gov is the U.S. government's official web portal to all federal, state and local government web resources and services.